createdAt,value
2022-10-01T00:00:26.503Z,11.60
2022-10-01T00:03:18.611Z,11.50
2022-10-01T00:05:59.003Z,11.51
2022-10-01T00:08:31.487Z,11.52
2022-10-01T00:11:08.053Z,11.53
2022-10-01T00:13:39.618Z,11.56
2022-10-01T00:16:13.569Z,11.60
2022-10-01T00:18:47.062Z,11.64
2022-10-01T00:21:20.350Z,11.67
2022-10-01T00:23:56.595Z,11.71
2022-10-01T00:26:30.737Z,11.71
2022-10-01T00:29:04.777Z,11.71
2022-10-01T00:31:36.702Z,11.70
2022-10-01T00:34:08.452Z,11.72
2022-10-01T00:36:38.494Z,11.72
2022-10-01T00:39:10.438Z,11.65
2022-10-01T00:41:42.821Z,11.63
2022-10-01T00:44:36.016Z,11.59
2022-10-01T00:47:20.475Z,11.58
2022-10-01T00:49:59.338Z,11.56
2022-10-01T00:52:36.193Z,11.55
2022-10-01T00:55:12.894Z,11.53
2022-10-01T00:57:46.210Z,11.49
2022-10-01T01:00:17.765Z,11.48
2022-10-01T01:02:49.346Z,11.46
2022-10-01T01:05:19.805Z,11.44
2022-10-01T01:07:54.523Z,11.38
2022-10-01T01:10:31.308Z,11.37
2022-10-01T01:13:18.138Z,11.36
2022-10-01T01:15:59.347Z,11.36
2022-10-01T01:18:36.095Z,11.36
2022-10-01T01:21:17.672Z,11.36
2022-10-01T01:24:10.372Z,11.37
2022-10-01T01:26:54.113Z,11.40
2022-10-01T01:29:31.064Z,11.42
2022-10-01T01:32:13.979Z,11.43
2022-10-01T01:34:52.139Z,11.45
2022-10-01T01:37:27.557Z,11.43
2022-10-01T01:40:03.553Z,11.40
2022-10-01T01:42:37.951Z,11.35
2022-10-01T01:45:13.690Z,11.33
2022-10-01T01:47:46.697Z,11.33
2022-10-01T01:50:19.756Z,11.31
2022-10-01T01:52:51.582Z,11.28
2022-10-01T01:55:25.554Z,11.27
2022-10-01T01:57:58.829Z,11.29
2022-10-01T02:00:30.711Z,11.30
2022-10-01T02:03:02.819Z,11.33
2022-10-01T02:05:43.902Z,11.34
2022-10-01T02:08:31.134Z,11.33
2022-10-01T02:11:12.666Z,11.31
2022-10-01T02:14:00.133Z,11.27
2022-10-01T02:16:36.198Z,11.23
2022-10-01T02:19:19.448Z,11.23
2022-10-01T02:22:00.866Z,11.20
2022-10-01T02:24:42.505Z,11.18
2022-10-01T02:27:14.815Z,11.18
2022-10-01T02:29:49.829Z,11.15
2022-10-01T02:32:22.978Z,11.14
2022-10-01T02:34:55.867Z,11.13
2022-10-01T02:37:37.209Z,11.13
2022-10-01T02:40:15.886Z,11.13
2022-10-01T02:42:51.012Z,11.11
2022-10-01T02:45:25.795Z,11.11
2022-10-01T02:48:02.657Z,11.11
2022-10-01T02:50:39.907Z,11.09
2022-10-01T02:53:18.306Z,11.03
2022-10-01T02:55:51.682Z,11.00
2022-10-01T02:58:23.513Z,10.97
2022-10-01T03:00:55.001Z,10.94
2022-10-01T03:03:27.410Z,10.93
2022-10-01T03:05:58.880Z,10.93
2022-10-01T03:08:31.726Z,10.92
2022-10-01T03:11:03.202Z,10.89
2022-10-01T03:13:34.427Z,10.89
2022-10-01T03:16:06.084Z,10.83
2022-10-01T03:18:37.599Z,10.80
2022-10-01T03:21:07.607Z,10.76
2022-10-01T03:23:39.120Z,10.73
2022-10-01T03:26:09.099Z,10.77
2022-10-01T03:28:40.572Z,10.75
2022-10-01T03:31:11.301Z,10.76
2022-10-01T03:33:43.067Z,10.72
2022-10-01T03:36:14.618Z,10.74
2022-10-01T03:38:44.620Z,10.74
2022-10-01T03:41:16.118Z,10.64
2022-10-01T03:43:46.105Z,10.61
2022-10-01T03:46:18.082Z,10.55
2022-10-01T03:48:50.630Z,10.56
2022-10-01T03:51:22.110Z,10.58
2022-10-01T03:53:52.099Z,10.60
2022-10-01T03:56:23.980Z,10.59
2022-10-01T03:58:55.808Z,10.59
2022-10-01T04:01:28.141Z,10.60
2022-10-01T04:04:00.089Z,10.61
2022-10-01T04:06:31.636Z,10.63
2022-10-01T04:09:01.712Z,10.66
2022-10-01T04:11:33.397Z,10.62
2022-10-01T04:14:05.219Z,10.59
2022-10-01T04:16:37.052Z,10.54
2022-10-01T04:19:08.554Z,10.48
2022-10-01T04:21:40.200Z,10.45
2022-10-01T04:24:12.045Z,10.48
2022-10-01T04:26:41.977Z,10.51
2022-10-01T04:29:13.459Z,10.46
2022-10-01T04:31:43.530Z,10.43
2022-10-01T04:34:14.985Z,10.41
2022-10-01T04:36:46.760Z,10.44
2022-10-01T04:39:18.468Z,10.45
2022-10-01T04:41:49.966Z,10.47
2022-10-01T04:44:21.384Z,10.49
2022-10-01T04:46:52.845Z,10.52
2022-10-01T04:49:22.838Z,10.54
2022-10-01T04:51:54.244Z,10.53
2022-10-01T04:54:25.730Z,10.59
2022-10-01T04:56:58.301Z,10.61
2022-10-01T04:59:31.801Z,10.65
2022-10-01T05:02:03.629Z,10.69
2022-10-01T05:04:35.074Z,10.70
2022-10-01T05:07:07.010Z,10.74
2022-10-01T05:09:38.444Z,10.77
2022-10-01T05:12:09.920Z,10.80
2022-10-01T05:14:39.881Z,10.80
2022-10-01T05:17:11.294Z,10.74
2022-10-01T05:19:42.750Z,10.76
2022-10-01T05:22:14.457Z,10.74
2022-10-01T05:24:45.886Z,10.70
2022-10-01T05:27:17.325Z,10.68
2022-10-01T05:29:49.015Z,10.63
2022-10-01T05:32:20.687Z,10.59
2022-10-01T05:34:53.728Z,10.58
2022-10-01T05:37:25.361Z,10.56
2022-10-01T05:39:55.337Z,10.56
2022-10-01T05:42:26.872Z,10.54
2022-10-01T05:44:56.864Z,10.55
2022-10-01T05:47:28.336Z,10.53
2022-10-01T05:49:59.979Z,10.55
2022-10-01T05:52:31.386Z,10.56
2022-10-01T05:55:02.836Z,10.55
2022-10-01T05:57:33.218Z,10.55
2022-10-01T06:00:05.639Z,10.52
2022-10-01T06:02:43.632Z,10.53
2022-10-01T06:05:15.309Z,10.53
2022-10-01T06:07:47.102Z,10.56
2022-10-01T06:10:18.954Z,10.58
2022-10-01T06:12:50.512Z,10.56
2022-10-01T06:15:20.465Z,10.52
2022-10-01T06:17:51.863Z,10.47
2022-10-01T06:20:24.137Z,10.45
2022-10-01T06:22:59.831Z,10.41
2022-10-01T06:25:31.635Z,10.35
2022-10-01T06:28:05.837Z,10.34
2022-10-01T06:30:39.409Z,10.33
2022-10-01T06:33:12.620Z,10.28
2022-10-01T06:35:45.764Z,10.25
2022-10-01T06:38:19.812Z,10.23
2022-10-01T06:40:55.861Z,10.24
2022-10-01T06:43:30.057Z,10.26
2022-10-01T06:46:03.909Z,10.31
2022-10-01T06:48:36.513Z,10.38
2022-10-01T06:51:08.678Z,10.47
2022-10-01T06:53:40.202Z,10.56
2022-10-01T06:56:10.336Z,10.62
2022-10-01T06:58:42.540Z,10.63
2022-10-01T07:01:14.227Z,10.67
2022-10-01T07:03:45.790Z,10.66
2022-10-01T07:06:17.253Z,10.69
2022-10-01T07:08:49.318Z,10.73
2022-10-01T07:11:21.209Z,10.75
2022-10-01T07:13:54.902Z,10.81
2022-10-01T07:16:26.607Z,10.88
2022-10-01T07:18:56.657Z,10.97
2022-10-01T07:21:28.179Z,11.02
2022-10-01T07:24:00.040Z,11.09
2022-10-01T07:26:30.063Z,11.16
2022-10-01T07:29:01.704Z,11.18
2022-10-01T07:31:33.678Z,11.20
2022-10-01T07:34:05.377Z,11.20
2022-10-01T07:36:36.821Z,11.24
2022-10-01T07:39:06.788Z,11.26
2022-10-01T07:41:38.293Z,11.28
2022-10-01T07:44:08.371Z,11.34
2022-10-01T07:46:40.714Z,11.37
2022-10-01T07:49:12.866Z,11.44
2022-10-01T07:51:44.482Z,11.53
2022-10-01T07:54:16.192Z,11.59
2022-10-01T07:56:48.232Z,11.67
2022-10-01T07:59:19.817Z,11.79
2022-10-01T08:01:51.791Z,11.85
2022-10-01T08:04:41.387Z,11.88
2022-10-01T08:07:12.866Z,11.95
2022-10-01T08:09:43.001Z,12.02
2022-10-01T08:12:14.452Z,12.07
2022-10-01T08:14:44.437Z,12.19
2022-10-01T08:17:15.913Z,12.25
2022-10-01T08:19:47.474Z,12.35
2022-10-01T08:22:17.566Z,12.44
2022-10-01T08:24:48.974Z,12.47
2022-10-01T08:27:19.071Z,12.55
2022-10-01T08:29:50.638Z,12.56
2022-10-01T08:32:23.266Z,12.59
2022-10-01T08:34:57.596Z,12.59
2022-10-01T08:37:30.275Z,12.60
2022-10-01T08:40:01.952Z,12.61
2022-10-01T08:42:52.161Z,12.61
2022-10-01T08:45:27.123Z,12.63
2022-10-01T08:48:06.330Z,12.65
2022-10-01T08:50:47.800Z,12.71
2022-10-01T08:53:29.220Z,12.75
2022-10-01T08:56:02.710Z,12.78
2022-10-01T08:58:42.086Z,12.80
2022-10-01T09:01:14.141Z,12.84
2022-10-01T09:03:45.721Z,12.89
2022-10-01T09:06:19.534Z,12.93
2022-10-01T09:09:10.025Z,12.89
2022-10-01T09:11:59.531Z,12.93
2022-10-01T09:14:51.133Z,13.02
2022-10-01T09:17:32.665Z,13.09
2022-10-01T09:20:08.633Z,13.11
2022-10-01T09:22:45.437Z,13.07
2022-10-01T09:25:23.080Z,13.13
2022-10-01T09:28:01.893Z,13.17
2022-10-01T09:30:36.636Z,13.24
2022-10-01T09:33:16.587Z,13.30
2022-10-01T09:35:54.656Z,13.36
2022-10-01T09:38:34.919Z,13.42
2022-10-01T09:41:06.539Z,13.46
2022-10-01T09:43:41.290Z,13.47
2022-10-01T09:46:17.522Z,13.48
2022-10-01T09:48:57.463Z,13.51
2022-10-01T09:51:39.421Z,13.53
2022-10-01T09:54:17.457Z,13.51
2022-10-01T09:56:54.902Z,13.54
2022-10-01T09:59:31.310Z,13.57
2022-10-01T10:02:05.980Z,13.63
2022-10-01T10:04:37.599Z,13.67
2022-10-01T10:07:09.216Z,13.73
2022-10-01T10:09:41.446Z,13.83
2022-10-01T10:12:29.332Z,13.92
2022-10-01T10:15:09.971Z,14.02
2022-10-01T10:17:44.233Z,14.13
2022-10-01T10:20:25.944Z,14.23
2022-10-01T10:23:08.343Z,14.31
2022-10-01T10:25:39.964Z,14.38
2022-10-01T10:28:19.729Z,14.46
2022-10-01T10:30:53.713Z,14.54
2022-10-01T10:33:27.094Z,14.67
2022-10-01T10:36:05.494Z,14.77
2022-10-01T10:38:37.454Z,14.89
2022-10-01T10:41:19.587Z,15.02
2022-10-01T10:43:51.339Z,15.14
2022-10-01T10:46:31.442Z,15.22
2022-10-01T10:49:09.295Z,15.27
2022-10-01T10:51:53.542Z,15.34
2022-10-01T10:54:29.382Z,15.41
2022-10-01T10:57:03.221Z,15.47
2022-10-01T10:59:35.775Z,15.51
2022-10-01T11:02:16.677Z,15.57
2022-10-01T11:04:49.273Z,15.68
2022-10-01T11:07:25.250Z,15.82
2022-10-01T11:10:10.232Z,15.92
2022-10-01T11:12:56.934Z,15.95
2022-10-01T11:15:48.174Z,15.96
2022-10-01T11:18:43.928Z,15.89
2022-10-01T11:21:29.239Z,15.84
2022-10-01T11:24:14.333Z,15.82
2022-10-01T11:26:55.349Z,15.77
2022-10-01T11:29:38.737Z,15.79
2022-10-01T11:32:19.861Z,15.80
2022-10-01T11:35:03.721Z,15.78
2022-10-01T11:37:47.615Z,15.80
2022-10-01T11:40:25.494Z,15.85
2022-10-01T11:43:04.421Z,15.89
2022-10-01T11:45:42.758Z,15.91
2022-10-01T11:48:24.114Z,15.90
2022-10-01T11:51:01.239Z,15.90
2022-10-01T11:53:38.769Z,15.90
2022-10-01T11:56:37.321Z,15.82
2022-10-01T11:59:17.632Z,15.71
2022-10-01T12:01:54.698Z,15.61
2022-10-01T12:04:34.118Z,15.58
2022-10-01T12:07:13.110Z,15.52
2022-10-01T12:09:58.082Z,15.49
2022-10-01T12:12:35.205Z,15.53
2022-10-01T12:15:16.425Z,15.54
2022-10-01T12:17:53.833Z,15.57
2022-10-01T12:20:32.388Z,15.59
2022-10-01T12:23:09.140Z,15.54
2022-10-01T12:25:49.177Z,15.52
2022-10-01T12:28:24.532Z,15.51
2022-10-01T12:31:04.063Z,15.52
2022-10-01T12:34:01.914Z,15.54
2022-10-01T12:36:45.156Z,15.57
2022-10-01T12:39:34.555Z,15.55
2022-10-01T12:42:19.689Z,15.57
2022-10-01T12:45:06.213Z,15.57
2022-10-01T12:47:45.840Z,15.53
2022-10-01T12:50:27.877Z,15.54
2022-10-01T12:53:17.827Z,15.58
2022-10-01T12:56:01.368Z,15.59
2022-10-01T12:59:03.920Z,15.56
2022-10-01T13:01:55.806Z,15.57
2022-10-01T13:04:56.631Z,15.56
2022-10-01T13:07:37.453Z,15.54
2022-10-01T13:10:23.142Z,15.51
2022-10-01T13:13:02.978Z,15.48
2022-10-01T13:15:37.893Z,15.50
2022-10-01T13:18:20.701Z,15.51
2022-10-01T13:21:01.858Z,15.49
2022-10-01T13:23:41.563Z,15.43
2022-10-01T13:26:17.453Z,15.37
2022-10-01T13:29:01.573Z,15.35
2022-10-01T13:31:39.573Z,15.30
2022-10-01T13:34:39.073Z,15.20
2022-10-01T13:37:16.529Z,15.12
2022-10-01T13:39:48.620Z,15.08
2022-10-01T13:42:26.078Z,15.03
2022-10-01T13:45:00.520Z,15.00
2022-10-01T13:47:33.061Z,14.97
2022-10-01T13:50:08.169Z,14.95
2022-10-01T13:52:39.914Z,14.93
2022-10-01T13:55:28.674Z,14.91
2022-10-01T13:58:08.218Z,14.88
2022-10-01T14:00:50.297Z,14.88
2022-10-01T14:03:39.897Z,14.83
2022-10-01T14:06:19.348Z,14.82
2022-10-01T14:08:55.145Z,14.83
2022-10-01T14:11:47.866Z,14.82
2022-10-01T14:14:46.829Z,14.77
2022-10-01T14:17:22.818Z,14.73
2022-10-01T14:19:54.737Z,14.68
2022-10-01T14:22:36.503Z,14.62
2022-10-01T14:25:20.938Z,14.59
2022-10-01T14:28:08.319Z,14.57
2022-10-01T14:30:46.872Z,14.56
2022-10-01T14:33:37.114Z,14.53
2022-10-01T14:36:16.546Z,14.48
2022-10-01T14:38:48.330Z,14.43
2022-10-01T14:41:26.939Z,14.39
2022-10-01T14:43:58.384Z,14.37
2022-10-01T14:46:28.430Z,14.36
2022-10-01T14:49:00.849Z,14.34
2022-10-01T14:51:33.076Z,14.39
2022-10-01T14:54:04.598Z,14.44
2022-10-01T14:56:37.938Z,14.45
2022-10-01T14:59:17.175Z,14.46
2022-10-01T15:02:00.213Z,14.49
2022-10-01T15:04:31.760Z,14.49
2022-10-01T15:07:17.160Z,14.51
2022-10-01T15:09:49.918Z,14.52
2022-10-01T15:12:24.223Z,14.52
2022-10-01T15:14:56.899Z,14.52
2022-10-01T15:17:29.648Z,14.51
2022-10-01T15:20:01.293Z,14.48
2022-10-01T15:22:34.001Z,14.41
2022-10-01T15:25:06.462Z,14.39
2022-10-01T15:27:41.739Z,14.35
2022-10-01T15:30:19.160Z,14.31
2022-10-01T15:32:51.496Z,14.29
2022-10-01T15:35:24.611Z,14.26
2022-10-01T15:38:00.529Z,14.27
2022-10-01T15:40:35.279Z,14.26
2022-10-01T15:43:23.519Z,14.24
2022-10-01T15:46:28.896Z,14.21
2022-10-01T15:49:18.887Z,14.16
2022-10-01T15:52:15.390Z,14.15
2022-10-01T15:54:48.474Z,14.11
2022-10-01T15:57:22.732Z,14.05
2022-10-01T15:59:57.789Z,14.00
2022-10-01T16:02:32.899Z,13.95
2022-10-01T16:05:08.985Z,13.90
2022-10-01T16:07:40.521Z,13.86
2022-10-01T16:10:32.316Z,13.86
2022-10-01T16:13:36.311Z,13.86
2022-10-01T16:16:18.597Z,13.85
2022-10-01T16:18:56.254Z,13.83
2022-10-01T16:21:28.287Z,13.80
2022-10-01T16:23:59.839Z,13.77
2022-10-01T16:26:37.797Z,13.72
2022-10-01T16:29:25.139Z,13.67
2022-10-01T16:31:58.235Z,13.63
2022-10-01T16:34:29.705Z,13.56
2022-10-01T16:36:59.772Z,13.51
2022-10-01T16:39:31.469Z,13.39
2022-10-01T16:42:22.676Z,13.33
2022-10-01T16:44:53.232Z,13.28
2022-10-01T16:47:24.658Z,13.24
2022-10-01T16:49:54.663Z,13.27
2022-10-01T16:52:26.544Z,13.25
2022-10-01T16:54:58.061Z,13.26
2022-10-01T16:57:29.539Z,13.24
2022-10-01T16:59:59.572Z,13.22
2022-10-01T17:02:31.074Z,13.19
2022-10-01T17:05:02.581Z,13.19
2022-10-01T17:07:33.446Z,13.18
2022-10-01T17:10:06.383Z,13.14
2022-10-01T17:12:37.848Z,13.12
2022-10-01T17:15:13.062Z,13.07
2022-10-01T17:17:44.851Z,13.02
2022-10-01T17:20:16.459Z,13.05
2022-10-01T17:22:48.551Z,13.07
2022-10-01T17:25:21.836Z,13.08
2022-10-01T17:27:53.342Z,13.09
2022-10-01T17:30:25.111Z,13.10
2022-10-01T17:32:56.877Z,13.08
2022-10-01T17:35:29.543Z,13.08
2022-10-01T17:38:01.204Z,13.06
2022-10-01T17:40:32.678Z,13.01
2022-10-01T17:43:02.661Z,13.00
2022-10-01T17:45:34.167Z,12.94
2022-10-01T17:48:05.983Z,12.94
2022-10-01T17:50:43.671Z,12.92
2022-10-01T17:53:15.642Z,12.93
2022-10-01T17:55:47.258Z,12.94
2022-10-01T17:58:19.735Z,12.95
2022-10-01T18:00:51.420Z,12.94
2022-10-01T18:03:23.444Z,12.94
2022-10-01T18:06:03.588Z,12.94
2022-10-01T18:08:54.281Z,12.95
2022-10-01T18:11:28.834Z,12.96
2022-10-01T18:14:00.521Z,12.97
2022-10-01T18:16:32.123Z,12.94
2022-10-01T18:21:56.938Z,12.86
2022-10-01T18:24:28.929Z,12.88
2022-10-01T18:27:00.409Z,12.92
2022-10-01T18:29:31.897Z,12.96
2022-10-01T18:32:02.789Z,12.96
2022-10-01T18:34:40.745Z,12.88
2022-10-01T18:37:23.359Z,12.85
2022-10-01T18:40:01.123Z,12.70
2022-10-01T18:42:42.515Z,12.50
2022-10-01T18:45:19.467Z,12.36
2022-10-01T18:48:03.833Z,12.21
2022-10-01T18:50:44.548Z,12.08
2022-10-01T18:53:29.174Z,11.97
2022-10-01T18:56:29.190Z,11.90
2022-10-01T18:59:15.701Z,11.81
2022-10-01T19:01:54.796Z,11.70
2022-10-01T19:04:51.777Z,11.65
2022-10-01T19:07:40.866Z,11.61
2022-10-01T19:10:23.980Z,11.56
2022-10-01T19:13:06.548Z,11.57
2022-10-01T19:15:50.801Z,11.55
2022-10-01T19:18:38.507Z,11.49
2022-10-01T19:21:20.720Z,11.43
2022-10-01T19:24:20.635Z,11.36
2022-10-01T19:27:01.504Z,11.32
2022-10-01T19:29:46.697Z,11.28
2022-10-01T19:32:22.487Z,11.26
2022-10-01T19:34:59.053Z,11.23
2022-10-01T19:37:37.649Z,11.18
2022-10-01T19:40:20.470Z,11.13
2022-10-01T19:43:00.105Z,11.13
2022-10-01T19:45:44.236Z,11.09
2022-10-01T19:48:22.383Z,11.06
2022-10-01T19:50:59.346Z,11.04
2022-10-01T19:53:37.182Z,11.05
2022-10-01T19:56:14.744Z,11.08
2022-10-01T19:58:47.517Z,11.11
2022-10-01T20:01:22.345Z,11.13
2022-10-01T20:04:00.184Z,11.11
2022-10-01T20:06:34.757Z,11.11
2022-10-01T20:09:16.838Z,11.10
2022-10-01T20:11:54.779Z,11.09
2022-10-01T20:14:59.650Z,11.07
2022-10-01T20:17:40.417Z,11.08
2022-10-01T20:20:18.785Z,11.04
2022-10-01T20:23:03.340Z,10.95
2022-10-01T20:25:45.937Z,10.91
2022-10-01T20:28:24.923Z,10.91
2022-10-01T20:31:08.939Z,10.89
2022-10-01T20:33:51.842Z,10.88
2022-10-01T20:36:34.041Z,10.87
2022-10-01T20:39:13.170Z,10.84
2022-10-01T20:41:47.847Z,10.83
2022-10-01T20:44:23.479Z,10.83
2022-10-01T20:47:03.139Z,10.81
2022-10-01T20:49:39.279Z,10.83
2022-10-01T20:52:18.939Z,10.85
2022-10-01T20:54:57.498Z,10.80
2022-10-01T20:57:34.454Z,10.78
2022-10-01T21:00:08.970Z,10.76
2022-10-01T21:02:45.003Z,10.72
2022-10-01T21:05:23.394Z,10.70
2022-10-01T21:08:00.499Z,10.69
2022-10-01T21:10:38.773Z,10.66
2022-10-01T21:13:16.892Z,10.64
2022-10-01T21:15:58.559Z,10.61
2022-10-01T21:18:36.322Z,10.57
2022-10-01T21:21:20.124Z,10.54
2022-10-01T21:24:05.942Z,10.55
2022-10-01T21:26:49.732Z,10.57
2022-10-01T21:29:39.934Z,10.58
2022-10-01T21:32:23.403Z,10.55
2022-10-01T21:35:02.427Z,10.53
2022-10-01T21:37:38.753Z,10.55
2022-10-01T21:40:24.925Z,10.55
2022-10-01T21:43:06.951Z,10.57
2022-10-01T21:45:48.611Z,10.55
2022-10-01T21:48:25.605Z,10.52
2022-10-01T21:51:03.576Z,10.47
2022-10-01T21:54:03.500Z,10.47
2022-10-01T21:56:54.976Z,10.49
2022-10-01T21:59:47.558Z,10.52
2022-10-01T22:02:31.112Z,10.53
2022-10-01T22:05:12.266Z,10.55
2022-10-01T22:07:52.047Z,10.54
2022-10-01T22:10:28.445Z,10.54
2022-10-01T22:13:04.204Z,10.54
2022-10-01T22:15:40.497Z,10.54
2022-10-01T22:18:19.474Z,10.56
2022-10-01T22:20:52.599Z,10.58
2022-10-01T22:23:25.613Z,10.57
2022-10-01T22:26:02.125Z,10.56
2022-10-01T22:28:39.854Z,10.55
2022-10-01T22:31:16.790Z,10.57
2022-10-01T22:33:54.211Z,10.60
2022-10-01T22:36:32.648Z,10.58
2022-10-01T22:39:08.566Z,10.57
2022-10-01T22:41:45.879Z,10.58
2022-10-01T22:44:19.925Z,10.58
2022-10-01T22:47:21.538Z,10.56
2022-10-01T22:50:11.947Z,10.54
2022-10-01T22:52:52.685Z,10.52
2022-10-01T22:55:31.902Z,10.53
2022-10-01T22:58:14.432Z,10.51
2022-10-01T23:00:52.351Z,10.50
2022-10-01T23:03:35.361Z,10.50
2022-10-01T23:06:12.328Z,10.49
2022-10-01T23:08:50.047Z,10.44
2022-10-01T23:11:28.004Z,10.44
2022-10-01T23:14:09.106Z,10.46
2022-10-01T23:16:51.503Z,10.49
2022-10-01T23:19:36.570Z,10.49
2022-10-01T23:22:15.613Z,10.48
2022-10-01T23:25:04.582Z,10.48
2022-10-01T23:27:48.286Z,10.47
2022-10-01T23:30:21.614Z,10.47
2022-10-01T23:33:20.853Z,10.43
2022-10-01T23:36:05.126Z,10.37
2022-10-01T23:38:53.402Z,10.32
2022-10-01T23:41:31.941Z,10.28
2022-10-01T23:44:10.013Z,10.23
2022-10-01T23:46:43.859Z,10.18
2022-10-01T23:49:18.390Z,10.17
2022-10-01T23:51:56.554Z,10.16
2022-10-01T23:54:34.103Z,10.14
2022-10-01T23:57:11.071Z,10.12
2022-10-01T23:59:45.757Z,10.10
